Time;durP1;ratioP1;P1;durP2;ratioP2;P2;SDS_P1;SDS_P2;PMS_P1;PMS_P2;Temp;Humidity;BMP_temperature;BMP_pressure;BME280_temperature;BME280_humidity;BME280_pressure;Samples;Min_cycle;Max_cycle;Signal;HPM_P1;HPM_P2
2023/01/05 00:01:03;;;;;;;8.23;2.08;;;;;;;11.93;75.22;101286.69;5053875;28;20032;-59
2023/01/05 00:03:28;;;;;;;14.75;2.78;;;;;;;11.96;74.70;101291.84;5052876;28;20083;-60
2023/01/05 00:05:59;;;;;;;21.38;4.63;;;;;;;12.00;74.96;101289.22;5054737;28;20140;-60
2023/01/05 00:08:24;;;;;;;16.08;3.15;;;;;;;12.02;74.86;101281.44;5053495;28;20049;-60
2023/01/05 00:24:36;;;;;;;16.58;3.63;;;;;;;11.98;75.37;101290.97;5053534;28;20051;-60
2023/01/05 00:27:01;;;;;;;14.57;3.33;;;;;;;11.97;75.50;101285.78;5054035;28;20032;-60
2023/01/05 00:29:27;;;;;;;15.07;3.13;;;;;;;11.97;75.68;101301.31;5053157;28;20155;-60
2023/01/05 00:31:52;;;;;;;21.80;3.05;;;;;;;11.97;75.34;101296.13;5054854;28;20059;-63
2023/01/05 00:34:17;;;;;;;11.95;2.83;;;;;;;12.00;75.03;101298.72;5037283;28;20047;-64
2023/01/05 00:36:43;;;;;;;21.02;4.28;;;;;;;12.00;75.54;101316.84;5053860;28;20044;-63
2023/01/05 00:39:08;;;;;;;16.00;3.55;;;;;;;12.02;75.09;101308.19;5053497;28;20041;-64
2023/01/05 00:41:33;;;;;;;15.88;3.33;;;;;;;12.01;74.98;101314.25;5056532;28;20104;-64
2023/01/05 00:43:59;;;;;;;15.30;3.33;;;;;;;12.00;75.22;101311.66;5058923;28;20033;-64
2023/01/05 00:46:24;;;;;;;13.25;3.50;;;;;;;12.05;74.29;101289.22;5057768;28;20097;-63
2023/01/05 00:48:49;;;;;;;14.93;3.13;;;;;;;12.04;74.72;101301.28;5057894;28;20025;-63
2023/01/05 00:51:15;;;;;;;17.73;2.85;;;;;;;12.04;74.65;101305.59;5057723;28;20036;-63
2023/01/05 00:53:40;;;;;;;17.65;3.30;;;;;;;12.02;74.89;101302.19;5058796;28;20044;-63
2023/01/05 00:56:06;;;;;;;14.52;3.00;;;;;;;12.01;74.75;101301.31;5038586;28;20040;-62
2023/01/05 00:58:31;;;;;;;15.07;3.45;;;;;;;12.02;74.64;101304.78;5053555;28;20029;-62
2023/01/05 01:00:56;;;;;;;20.98;3.83;;;;;;;12.00;74.97;101302.16;5041962;28;20046;-62
2023/01/05 01:03:22;;;;;;;14.55;3.22;;;;;;;12.02;74.37;101303.00;5057642;28;20032;-62
2023/01/05 01:05:58;;;;;;;18.92;3.70;;;;;;;12.08;73.67;101295.19;5040795;28;20040;-62
2023/01/05 01:08:24;;;;;;;19.00;3.72;;;;;;;12.05;74.66;101292.63;5033570;28;20405;-62
2023/01/05 01:10:49;;;;;;;14.77;3.00;;;;;;;12.04;74.02;101283.16;5055327;28;20036;-62
2023/01/05 01:13:14;;;;;;;17.33;4.05;;;;;;;12.08;73.67;101286.59;5057172;28;20052;-62
2023/01/05 01:15:40;;;;;;;23.85;4.78;;;;;;;12.08;73.41;101294.38;5055783;28;20082;-62
2023/01/05 01:18:05;;;;;;;15.82;4.10;;;;;;;12.07;74.05;101295.22;5057467;28;20052;-62
2023/01/05 01:20:31;;;;;;;14.50;3.15;;;;;;;12.05;73.90;101297.81;5058181;28;20045;-63
2023/01/05 01:22:59;;;;;;;12.98;3.47;;;;;;;12.04;73.90;101306.47;5041861;28;20032;-62
2023/01/05 01:25:25;;;;;;;19.15;3.03;;;;;;;12.06;73.81;101306.44;5055939;28;20036;-62
2023/01/05 01:27:50;;;;;;;19.40;3.05;;;;;;;12.06;74.30;101304.72;5057682;28;20043;-62
2023/01/05 01:30:15;;;;;;;21.83;3.92;;;;;;;12.04;74.40;101303.88;5056836;28;20032;-62
2023/01/05 01:32:41;;;;;;;24.15;3.45;;;;;;;12.07;74.08;101297.81;5054961;28;20089;-62
2023/01/05 01:35:07;;;;;;;20.15;4.28;;;;;;;12.07;74.18;101297.81;5058374;28;20036;-63
2023/01/05 01:37:32;;;;;;;20.85;3.80;;;;;;;12.04;74.71;101305.59;5054940;28;20053;-62
2023/01/05 01:39:58;;;;;;;22.83;3.40;;;;;;;12.05;74.47;101309.94;5053020;28;20045;-63
2023/01/05 01:42:23;;;;;;;21.80;4.75;;;;;;;12.01;74.94;101314.25;5053510;28;20037;-64
2023/01/05 01:44:58;;;;;;;18.88;3.45;;;;;;;12.01;75.02;101319.44;5054580;28;20048;-63
2023/01/05 01:47:37;;;;;;;20.00;4.35;;;;;;;12.03;75.13;101330.66;5053239;28;20485;-63
2023/01/05 01:50:09;;;;;;;15.32;3.20;;;;;;;12.03;74.98;101324.59;5050646;28;20508;-64
2023/01/05 01:52:36;;;;;;;18.15;3.58;;;;;;;12.03;75.16;101322.00;5038539;28;20032;-64
2023/01/05 01:55:04;;;;;;;20.58;3.50;;;;;;;12.01;75.47;101319.44;5054114;28;20044;-63
2023/01/05 01:57:32;;;;;;;17.70;4.03;;;;;;;12.03;75.12;101319.41;5051603;28;20040;-63
2023/01/05 02:00:01;;;;;;;19.80;4.50;;;;;;;12.06;74.69;101320.28;5053600;28;20138;-64
2023/01/05 02:02:27;;;;;;;20.42;3.88;;;;;;;12.07;74.70;101315.97;5052584;28;20929;-64
2023/01/05 02:04:54;;;;;;;16.20;3.58;;;;;;;12.09;75.26;101321.97;5053207;28;20050;-64
2023/01/05 02:07:23;;;;;;;22.00;4.25;;;;;;;12.12;74.79;101332.34;5054236;28;20342;-64
2023/01/05 02:09:48;;;;;;;16.52;3.63;;;;;;;12.15;74.66;101316.75;5056373;28;20036;-64
2023/01/05 02:12:34;;;;;;;18.58;3.95;;;;;;;12.14;75.06;101315.06;5053616;28;20032;-64
2023/01/05 02:15:22;;;;;;;15.90;3.83;;;;;;;12.11;74.88;101318.50;5056189;28;20810;-63
2023/01/05 02:17:56;;;;;;;19.27;3.22;;;;;;;12.08;75.14;101325.47;5053205;28;20047;-63
2023/01/05 02:20:30;;;;;;;16.77;3.50;;;;;;;12.10;75.25;101336.66;5056552;28;20040;-64
2023/01/05 02:23:33;;;;;;;20.02;3.70;;;;;;;12.12;75.06;101327.16;5036996;28;20812;-64
2023/01/05 02:26:20;;;;;;;21.45;4.20;;;;;;;12.09;75.12;101324.56;5042532;28;20051;-67
2023/01/05 02:29:02;;;;;;;20.40;3.47;;;;;;;12.11;75.08;101318.50;5053126;28;20767;-63
2023/01/05 02:31:36;;;;;;;21.58;4.47;;;;;;;12.15;74.64;101320.22;5055914;28;20127;-63
2023/01/05 02:34:29;;;;;;;18.77;3.55;;;;;;;12.12;74.95;101312.47;5056237;28;20028;-63
2023/01/05 02:37:17;;;;;;;17.70;3.58;;;;;;;12.11;75.00;101318.50;5055922;28;20037;-63
2023/01/05 02:39:46;;;;;;;16.35;3.95;;;;;;;12.10;75.37;101326.31;5035370;28;20453;-63
2023/01/05 02:42:18;;;;;;;18.10;3.40;;;;;;;12.10;75.17;101323.72;5055567;28;20097;-63
2023/01/05 02:44:44;;;;;;;16.85;3.17;;;;;;;12.07;75.23;101327.19;5052055;28;20055;-63
2023/01/05 02:47:24;;;;;;;15.57;3.30;;;;;;;12.11;75.02;101331.47;5056257;28;20032;-63
2023/01/05 02:49:58;;;;;;;18.30;3.53;;;;;;;12.11;74.65;101346.19;5056885;28;20111;-63
2023/01/05 02:52:25;;;;;;;21.58;4.20;;;;;;;12.10;75.11;101344.44;5047961;28;20078;-63
2023/01/05 02:55:04;;;;;;;20.05;3.45;;;;;;;12.07;75.35;101342.75;5030487;28;20039;-63
2023/01/05 02:57:46;;;;;;;20.52;3.97;;;;;;;12.07;74.95;101345.31;5034111;28;20182;-63
2023/01/05 03:00:15;;;;;;;16.67;4.45;;;;;;;12.06;75.29;101346.19;5031817;28;20816;-63
2023/01/05 03:02:42;;;;;;;18.65;3.42;;;;;;;12.04;74.97;101347.06;5032115;28;20067;-63
2023/01/05 03:05:14;;;;;;;17.58;4.93;;;;;;;12.00;75.58;101341.03;5035357;28;20693;-63
2023/01/05 03:07:42;;;;;;;20.88;3.40;;;;;;;12.01;75.28;101344.50;5035159;28;20041;-63
2023/01/05 03:15:45;;;;;;;17.65;3.55;;;;;;;11.99;75.27;101356.59;5035846;28;20055;-63
2023/01/05 03:18:16;;;;;;;29.05;3.92;;;;;;;11.99;75.32;101344.47;5037052;28;20075;-63
2023/01/05 03:20:47;;;;;;;22.35;4.25;;;;;;;11.95;75.57;101349.69;5036010;28;20110;-63
2023/01/05 03:35:33;;;;;;;16.90;4.32;;;;;;;11.94;75.59;101351.44;5037579;28;20706;-63
2023/01/05 03:38:16;;;;;;;16.35;3.50;;;;;;;11.93;75.56;101357.47;4979878;28;20050;-63
2023/01/05 03:40:43;;;;;;;23.90;4.55;;;;;;;11.93;75.35;101356.63;5040218;28;20436;-63
2023/01/05 03:43:08;;;;;;;17.63;3.05;;;;;;;11.94;75.36;101347.97;5057726;28;20028;-63
2023/01/05 03:45:39;;;;;;;21.77;3.40;;;;;;;11.90;76.17;101360.06;5055360;28;20444;-63
2023/01/05 03:48:05;;;;;;;18.48;3.65;;;;;;;11.86;75.86;101354.06;5036522;28;20066;-63
2023/01/05 03:50:31;;;;;;;13.65;3.13;;;;;;;11.85;75.75;101359.22;5046906;28;20036;-63
2023/01/05 03:52:56;;;;;;;23.33;4.07;;;;;;;11.86;76.00;101358.38;5051854;28;20037;-64
2023/01/05 03:55:22;;;;;;;20.33;4.13;;;;;;;11.86;75.90;101363.56;5034946;28;20033;-65
2023/01/05 03:57:48;;;;;;;22.48;4.35;;;;;;;11.86;75.91;101356.66;5039520;28;20033;-63
2023/01/05 04:00:14;;;;;;;15.70;3.30;;;;;;;11.91;75.25;101351.44;5036144;28;20044;-64
2023/01/05 04:02:39;;;;;;;19.33;3.97;;;;;;;11.90;75.48;101353.16;5049483;28;20155;-64
2023/01/05 04:05:05;;;;;;;22.38;4.45;;;;;;;11.85;76.14;101362.69;5048757;28;20041;-63
2023/01/05 04:07:30;;;;;;;21.75;3.95;;;;;;;11.86;75.78;101361.84;5036196;28;20086;-64
2023/01/05 04:09:55;;;;;;;24.00;3.50;;;;;;;11.84;76.11;101363.53;5034213;28;20045;-65
2023/01/05 04:12:21;;;;;;;20.52;3.40;;;;;;;11.89;75.57;101360.97;5036189;28;20044;-65
2023/01/05 04:14:46;;;;;;;21.33;3.80;;;;;;;11.88;75.25;101357.50;5038113;28;20096;-64
2023/01/05 04:17:11;;;;;;;16.63;3.97;;;;;;;11.89;75.82;101359.22;5035046;28;20070;-63
2023/01/05 04:19:37;;;;;;;18.05;4.07;;;;;;;11.88;75.31;101365.28;5036035;28;20041;-64
2023/01/05 04:22:02;;;;;;;20.38;3.95;;;;;;;11.86;75.89;101367.00;5038661;28;20033;-64
2023/01/05 04:24:27;;;;;;;24.02;4.30;;;;;;;11.84;75.41;101362.72;5037635;28;20694;-65
2023/01/05 04:26:53;;;;;;;22.95;3.80;;;;;;;11.88;75.03;101357.50;5039732;28;20048;-64
2023/01/05 04:29:18;;;;;;;22.95;4.63;;;;;;;11.88;75.06;101362.69;5038075;28;20037;-64
2023/01/05 04:31:43;;;;;;;21.38;4.03;;;;;;;11.86;75.45;101382.56;5040255;28;20036;-65
2023/01/05 04:34:09;;;;;;;22.50;4.10;;;;;;;11.85;75.01;101373.06;5040601;28;20885;-66
2023/01/05 04:36:34;;;;;;;18.00;4.25;;;;;;;11.90;74.84;101373.03;5041948;28;20497;-65
2023/01/05 04:39:00;;;;;;;24.05;4.13;;;;;;;11.92;75.22;101360.94;5033649;28;20033;-64
2023/01/05 04:41:25;;;;;;;16.67;3.58;;;;;;;11.89;75.77;101372.19;5037505;28;20037;-65
2023/01/05 04:43:50;;;;;;;25.52;4.57;;;;;;;11.89;75.12;101368.72;5036573;28;20032;-64
2023/01/05 04:46:16;;;;;;;19.55;4.40;;;;;;;11.89;75.55;101366.13;5037712;28;20033;-64
2023/01/05 04:48:41;;;;;;;24.90;4.72;;;;;;;11.89;75.62;101368.72;5035322;28;20738;-64
2023/01/05 04:51:06;;;;;;;23.45;4.53;;;;;;;11.87;75.30;101376.50;5038977;28;20105;-65
2023/01/05 04:53:32;;;;;;;27.55;5.13;;;;;;;11.84;75.78;101376.50;5036239;28;20046;-64
2023/01/05 04:55:57;;;;;;;22.73;4.13;;;;;;;11.85;75.85;101367.00;5036944;28;20044;-63
2023/01/05 04:58:23;;;;;;;22.13;3.75;;;;;;;11.86;75.43;101368.75;5034292;28;20021;-64
2023/01/05 05:00:50;;;;;;;24.33;4.30;;;;;;;11.90;75.42;101362.66;5037824;28;20041;-65
2023/01/05 05:03:16;;;;;;;27.98;4.50;;;;;;;11.89;75.55;101361.81;5038806;28;20036;-64
2023/01/05 05:05:41;;;;;;;17.75;3.92;;;;;;;11.88;75.62;101365.28;5035620;28;20045;-65
2023/01/05 05:08:07;;;;;;;24.95;4.32;;;;;;;11.85;76.25;101367.88;5043703;28;20421;-64
2023/01/05 05:10:32;;;;;;;18.75;4.28;;;;;;;11.84;76.12;101366.13;5032822;28;21055;-64
2023/01/05 05:12:58;;;;;;;28.58;5.05;;;;;;;11.87;76.11;101378.25;5036558;28;20761;-65
2023/01/05 05:15:23;;;;;;;25.83;3.88;;;;;;;11.85;76.15;101383.41;5034914;28;20047;-64
2023/01/05 05:17:48;;;;;;;23.50;4.80;;;;;;;11.89;76.00;101374.78;5033311;28;20037;-64
2023/01/05 05:20:14;;;;;;;22.88;3.83;;;;;;;11.88;76.17;101375.63;5030635;28;20123;-64
2023/01/05 05:22:40;;;;;;;22.13;4.20;;;;;;;11.87;76.39;101379.06;5036816;28;20037;-67
2023/01/05 05:25:05;;;;;;;23.50;4.95;;;;;;;11.85;76.43;101390.31;5035553;28;20076;-65
2023/01/05 05:27:31;;;;;;;24.55;5.43;;;;;;;11.87;76.31;101388.59;5038566;28;20060;-65
2023/01/05 05:29:56;;;;;;;18.67;4.40;;;;;;;11.85;76.32;101386.00;5038550;28;20036;-65
2023/01/05 05:32:22;;;;;;;26.13;4.30;;;;;;;11.90;76.11;101383.38;5036511;28;20037;-65
2023/01/05 05:34:47;;;;;;;26.20;4.55;;;;;;;11.89;76.34;101384.28;5032657;28;20433;-64
2023/01/05 05:37:13;;;;;;;17.17;3.70;;;;;;;11.92;76.24;101388.56;5035585;28;20147;-66
2023/01/05 05:39:38;;;;;;;20.13;4.30;;;;;;;11.92;76.13;101391.16;5035180;28;20029;-65
2023/01/05 05:42:03;;;;;;;30.58;5.22;;;;;;;11.91;76.62;101390.28;5035548;28;21212;-64
2023/01/05 05:44:29;;;;;;;16.65;3.92;;;;;;;11.87;77.11;101397.22;5038231;28;20033;-64
2023/01/05 05:46:54;;;;;;;18.02;4.47;;;;;;;11.79;78.34;101418.81;5034372;28;20118;-64
2023/01/05 05:49:19;;;;;;;26.95;6.50;;;;;;;11.72;78.58;101399.00;5039235;28;20509;-65
2023/01/05 05:51:45;;;;;;;30.05;5.22;;;;;;;11.66;78.88;101397.28;5039982;28;20183;-65
2023/01/05 05:54:10;;;;;;;31.10;5.15;;;;;;;11.63;78.98;101411.97;5056209;28;20048;-64
2023/01/05 05:56:36;;;;;;;23.20;4.97;;;;;;;11.65;78.52;101405.94;5041831;28;20036;-65
2023/01/05 05:59:01;;;;;;;28.30;6.80;;;;;;;11.62;78.74;101408.53;5029337;28;20098;-65
2023/01/05 06:01:26;;;;;;;15.65;3.92;;;;;;;11.68;78.52;101420.59;5042270;28;20033;-64
2023/01/05 06:03:52;;;;;;;29.70;5.72;;;;;;;11.68;78.32;101418.00;5060858;28;21086;-64
2023/01/05 06:06:17;;;;;;;32.15;5.07;;;;;;;11.74;77.64;101418.00;5039757;28;20053;-65
2023/01/05 06:08:42;;;;;;;19.52;3.90;;;;;;;11.77;77.33;101418.84;5051285;28;20033;-64
2023/01/05 06:11:08;;;;;;;28.00;4.78;;;;;;;11.76;77.35;101408.47;5056895;28;20041;-65
2023/01/05 06:13:33;;;;;;;20.95;4.88;;;;;;;11.80;76.92;101417.97;5055126;28;20513;-65
2023/01/05 06:15:58;;;;;;;26.92;5.18;;;;;;;11.81;77.23;101422.31;5033328;28;20030;-64
2023/01/05 06:18:24;;;;;;;18.05;4.88;;;;;;;11.81;77.15;101430.06;5034533;28;20084;-63
2023/01/05 06:20:50;;;;;;;22.73;3.58;;;;;;;11.77;77.02;101434.38;5036507;28;20437;-63
2023/01/05 06:23:15;;;;;;;19.83;4.68;;;;;;;11.73;77.48;101430.06;5035548;28;20690;-64
2023/01/05 06:25:41;;;;;;;21.08;3.92;;;;;;;11.77;76.87;101441.28;5043169;28;20404;-63
2023/01/05 06:28:07;;;;;;;19.00;3.65;;;;;;;11.79;76.66;101445.59;5058891;28;20020;-63
2023/01/05 06:30:32;;;;;;;25.02;4.55;;;;;;;11.79;77.18;101442.13;5033351;28;20037;-64
2023/01/05 06:32:58;;;;;;;24.70;4.63;;;;;;;11.78;77.16;101441.28;5036473;28;20044;-64
2023/01/05 06:35:23;;;;;;;23.35;4.32;;;;;;;11.79;77.13;101443.00;5038627;28;20075;-64
2023/01/05 06:37:49;;;;;;;18.70;4.40;;;;;;;11.82;76.90;101444.72;5033911;28;20045;-64
2023/01/05 06:40:14;;;;;;;25.83;4.10;;;;;;;11.78;77.17;101451.63;5032736;28;20040;-64
2023/01/05 06:42:41;;;;;;;20.35;4.07;;;;;;;11.79;77.61;101457.69;5034070;28;20029;-65
2023/01/05 06:45:08;;;;;;;22.83;4.60;;;;;;;11.70;78.33;101457.69;5037578;28;20140;-64
2023/01/05 06:47:33;;;;;;;21.73;4.47;;;;;;;11.62;79.75;101457.72;5045673;28;20036;-64
2023/01/05 06:49:59;;;;;;;23.05;4.32;;;;;;;11.51;79.31;101451.72;5030816;28;20138;-65
2023/01/05 06:52:25;;;;;;;22.63;4.68;;;;;;;11.48;79.90;101458.59;5032066;28;20032;-65
2023/01/05 06:54:50;;;;;;;28.42;4.80;;;;;;;11.46;79.48;101449.97;5021679;28;20572;-64
2023/01/05 06:57:15;;;;;;;26.27;5.00;;;;;;;11.50;79.10;101462.91;5033232;28;20041;-65
2023/01/05 06:59:41;;;;;;;27.25;5.88;;;;;;;11.51;78.71;101459.47;5046353;28;20044;-64
2023/01/05 07:02:14;;;;;;;24.77;4.82;;;;;;;11.53;78.95;101465.50;5054365;28;20123;-64
2023/01/05 07:04:39;;;;;;;18.92;3.78;;;;;;;11.53;78.49;101469.81;5050430;28;20063;-65
2023/01/05 07:07:05;;;;;;;23.65;4.70;;;;;;;11.57;78.62;101485.34;5033348;28;20029;-66
2023/01/05 07:09:30;;;;;;;25.75;4.00;;;;;;;11.58;78.79;101470.66;5055710;28;20058;-64
2023/01/05 07:11:55;;;;;;;28.33;5.13;;;;;;;11.56;78.83;101473.28;5037543;28;20124;-64
2023/01/05 07:14:21;;;;;;;24.40;5.05;;;;;;;11.59;78.69;101493.13;5034432;28;20073;-64
2023/01/05 07:16:46;;;;;;;32.08;6.00;;;;;;;11.61;78.45;101483.59;5033487;28;20029;-64
2023/01/05 07:19:12;;;;;;;24.48;4.95;;;;;;;11.58;78.27;101484.47;5039204;28;20351;-64
2023/01/05 07:21:37;;;;;;;25.45;5.38;;;;;;;11.59;78.31;101495.69;5058259;28;20089;-64
2023/01/05 07:24:03;;;;;;;20.38;4.43;;;;;;;11.63;77.99;101494.84;5031449;28;20033;-64
2023/01/05 07:26:28;;;;;;;20.80;4.28;;;;;;;11.64;78.44;101489.66;5031075;28;20573;-64
2023/01/05 07:28:57;;;;;;;24.73;5.65;;;;;;;11.65;78.47;101495.69;5035352;28;20141;-64
2023/01/05 07:31:23;;;;;;;27.88;4.57;;;;;;;11.61;78.66;101502.59;5037222;28;20029;-64
2023/01/05 07:33:48;;;;;;;35.35;5.10;;;;;;;11.63;78.47;101502.63;5039108;28;20051;-63
2023/01/05 07:36:13;;;;;;;26.25;4.22;;;;;;;11.62;78.77;101508.66;5038292;28;20159;-63
2023/01/05 07:38:39;;;;;;;18.63;3.97;;;;;;;11.61;78.55;101515.53;5039218;28;20036;-63
2023/01/05 07:41:04;;;;;;;22.08;4.32;;;;;;;11.62;78.33;101514.69;5036293;28;20036;-64
2023/01/05 07:43:29;;;;;;;27.23;4.68;;;;;;;11.65;78.47;101519.00;5034207;28;20379;-63
2023/01/05 07:46:02;;;;;;;24.67;4.30;;;;;;;11.65;78.03;101519.88;5033660;28;20033;-63
2023/01/05 07:48:28;;;;;;;22.92;5.13;;;;;;;11.65;78.18;101521.59;5039638;28;20033;-63
2023/01/05 07:51:01;;;;;;;20.90;4.45;;;;;;;11.64;78.20;101527.63;5043244;28;20037;-60
2023/01/05 07:53:28;;;;;;;23.33;4.65;;;;;;;11.61;78.74;101525.03;5037835;28;20080;-61
2023/01/05 07:55:55;;;;;;;29.27;4.95;;;;;;;11.58;78.48;101530.22;5049908;28;20090;-61
2023/01/05 07:58:20;;;;;;;21.98;4.63;;;;;;;11.60;78.11;101533.69;5060122;28;20047;-60
2023/01/05 08:00:46;;;;;;;21.50;4.43;;;;;;;11.59;78.55;101537.13;5051223;28;20032;-61
2023/01/05 08:03:11;;;;;;;24.45;4.95;;;;;;;11.59;78.25;101539.72;5042502;28;20673;-61
2023/01/05 08:05:36;;;;;;;29.85;5.85;;;;;;;11.60;78.90;101550.09;5037923;28;20032;-61
2023/01/05 08:08:02;;;;;;;32.50;4.90;;;;;;;11.63;78.22;101550.09;5039619;28;20079;-61
2023/01/05 08:10:27;;;;;;;25.13;4.85;;;;;;;11.64;78.04;101546.63;5037222;28;20090;-61
2023/01/05 08:15:37;;;;;;;29.27;6.25;;;;;;;11.65;78.55;101558.72;5039970;28;20040;-61
2023/01/05 08:18:02;;;;;;;27.23;4.90;;;;;;;11.69;77.60;101552.66;5039398;28;20065;-62
2023/01/05 08:20:28;;;;;;;27.05;5.28;;;;;;;11.71;77.83;101558.72;5037297;28;20043;-61
2023/01/05 08:22:53;;;;;;;26.17;4.15;;;;;;;11.71;78.27;101552.66;5043879;28;20044;-65
2023/01/05 08:25:19;;;;;;;24.55;4.53;;;;;;;11.69;78.31;101555.25;5043266;28;20075;-64
2023/01/05 08:27:45;;;;;;;25.88;5.72;;;;;;;11.70;78.14;101556.97;5042404;28;20063;-64
2023/01/05 08:30:11;;;;;;;26.20;4.82;;;;;;;11.72;77.69;101563.00;5042442;28;20032;-64
2023/01/05 08:32:37;;;;;;;27.42;5.60;;;;;;;11.72;77.95;101564.75;5043397;28;20025;-64
2023/01/05 08:35:03;;;;;;;27.17;6.03;;;;;;;11.74;77.90;101570.78;5046700;28;20091;-64
2023/01/05 08:37:28;;;;;;;30.77;5.53;;;;;;;11.76;77.82;101566.47;5043356;28;20041;-63
2023/01/05 08:39:54;;;;;;;29.45;5.28;;;;;;;11.75;77.78;101570.78;5037753;28;20752;-63
2023/01/05 08:42:19;;;;;;;27.60;5.03;;;;;;;11.77;77.75;101571.66;5044177;28;20101;-64
2023/01/05 08:44:45;;;;;;;25.10;5.38;;;;;;;11.79;77.54;101580.28;5043873;28;20060;-64
2023/01/05 08:47:10;;;;;;;24.10;5.32;;;;;;;11.80;77.51;101573.38;5046427;28;20128;-63
2023/01/05 08:49:35;;;;;;;25.85;5.40;;;;;;;11.83;77.52;101578.56;5050216;28;20067;-64
2023/01/05 08:52:01;;;;;;;30.10;5.25;;;;;;;11.85;77.40;101579.41;5065376;28;20055;-64
2023/01/05 08:54:26;;;;;;;28.25;4.80;;;;;;;11.87;77.01;101581.13;5069081;28;20115;-64
2023/01/05 08:56:52;;;;;;;38.05;7.45;;;;;;;11.89;77.58;101582.03;5047790;28;20102;-63
2023/01/05 08:59:17;;;;;;;24.88;5.90;;;;;;;11.91;76.77;101587.19;5045351;28;20505;-63
2023/01/05 09:01:44;;;;;;;28.58;5.53;;;;;;;11.92;77.26;101583.75;5067241;28;20086;-63
2023/01/05 09:04:09;;;;;;;38.83;6.07;;;;;;;11.97;76.67;101578.53;5059128;28;20111;-63
2023/01/05 09:06:34;;;;;;;29.50;5.88;;;;;;;11.98;76.63;101586.31;5041989;28;20036;-64
2023/01/05 09:09:00;;;;;;;30.38;5.32;;;;;;;12.02;76.28;101585.44;5037184;28;20044;-63
2023/01/05 09:11:26;;;;;;;27.58;5.45;;;;;;;12.04;76.49;101595.81;5037897;28;20702;-63
2023/01/05 09:13:57;;;;;;;23.38;5.65;;;;;;;12.05;76.88;101594.97;5037816;28;20041;-64
2023/01/05 09:16:25;;;;;;;29.00;5.05;;;;;;;12.13;76.51;101595.81;5030367;28;20037;-63
2023/01/05 09:18:50;;;;;;;27.42;4.97;;;;;;;12.14;75.89;101582.00;5040499;28;20063;-63
2023/01/05 09:21:17;;;;;;;28.42;5.28;;;;;;;12.16;76.27;101596.66;5039656;28;20472;-63
2023/01/05 09:23:42;;;;;;;29.55;5.57;;;;;;;12.18;76.13;101602.69;5034140;28;20075;-63
2023/01/05 09:26:10;;;;;;;37.85;5.55;;;;;;;12.19;75.80;101591.47;5045925;28;20132;-65
2023/01/05 09:28:36;;;;;;;33.00;6.22;;;;;;;12.20;75.89;101605.28;5055349;28;20493;-64
2023/01/05 09:31:10;;;;;;;30.42;6.07;;;;;;;12.20;76.03;101603.56;5056000;28;20056;-65
2023/01/05 09:33:36;;;;;;;28.98;5.40;;;;;;;12.21;75.64;101601.84;5039043;28;20087;-65
2023/01/05 09:36:02;;;;;;;34.92;6.80;;;;;;;12.22;76.42;101606.16;5020518;28;20812;-64
2023/01/05 09:38:28;;;;;;;26.23;5.45;;;;;;;12.23;75.79;101618.22;5035502;28;20486;-64
2023/01/05 09:41:01;;;;;;;31.52;5.68;;;;;;;12.25;75.74;101621.72;5036693;28;20132;-65
2023/01/05 09:43:36;;;;;;;23.52;4.75;;;;;;;12.25;76.01;101627.75;5036333;28;20049;-65
2023/01/05 09:46:08;;;;;;;32.42;5.97;;;;;;;12.22;76.34;101638.13;5037717;28;20174;-61
2023/01/05 09:48:39;;;;;;;26.58;6.25;;;;;;;12.15;76.81;101641.59;5038609;28;20037;-65
2023/01/05 09:51:07;;;;;;;33.92;6.32;;;;;;;12.10;77.72;101643.31;5038282;28;20029;-65
2023/01/05 09:53:32;;;;;;;25.27;5.35;;;;;;;12.08;77.95;101647.63;5038532;28;20111;-66
2023/01/05 09:55:58;;;;;;;28.20;5.70;;;;;;;12.09;78.12;101659.72;5029667;28;20057;-65
2023/01/05 09:58:30;;;;;;;27.73;5.30;;;;;;;12.13;77.12;101650.22;5035544;28;20029;-65
2023/01/05 10:01:16;;;;;;;36.00;5.00;;;;;;;12.17;77.01;101655.41;5033776;28;20433;-65
2023/01/05 10:03:54;;;;;;;36.65;7.03;;;;;;;12.26;76.66;101646.75;5033954;28;20787;-65
2023/01/05 10:06:28;;;;;;;29.73;5.57;;;;;;;12.30;76.24;101661.44;5037055;28;20076;-62
2023/01/05 10:08:55;;;;;;;23.75;5.40;;;;;;;12.37;75.92;101651.06;5033197;28;20044;-61
2023/01/05 10:14:20;;;;;;;28.55;5.50;;;;;;;12.47;75.10;101646.72;5029978;28;20048;-61
2023/01/05 10:16:46;;;;;;;29.38;6.10;;;;;;;12.52;74.53;101647.59;5034371;28;20486;-61
2023/01/05 10:19:13;;;;;;;35.53;6.03;;;;;;;12.55;74.18;101646.72;5037301;28;20045;-62
2023/01/05 10:21:54;;;;;;;29.15;5.07;;;;;;;12.60;74.47;101650.16;5034189;28;20036;-62
2023/01/05 10:24:46;;;;;;;28.70;5.15;;;;;;;12.67;73.94;101650.13;5034802;28;20156;-62
2023/01/05 10:27:23;;;;;;;34.75;5.28;;;;;;;12.73;73.62;101654.44;5035333;28;20071;-62
2023/01/05 10:30:00;;;;;;;26.05;5.38;;;;;;;12.74;73.11;101649.25;5030016;28;20518;-61
2023/01/05 10:32:54;;;;;;;34.60;6.40;;;;;;;12.78;73.08;101644.91;5032360;28;20040;-62
2023/01/05 10:35:19;;;;;;;26.42;5.60;;;;;;;12.71;72.81;101646.66;5037237;28;20044;-62
2023/01/05 10:37:57;;;;;;;34.70;5.70;;;;;;;12.78;72.86;101657.88;5034428;28;20055;-61
2023/01/05 10:40:34;;;;;;;28.45;5.80;;;;;;;12.86;72.96;101659.56;5034837;28;20033;-62
2023/01/05 10:43:22;;;;;;;26.65;5.85;;;;;;;12.87;72.56;101655.25;5053986;28;20028;-62
2023/01/05 10:45:47;;;;;;;27.77;5.78;;;;;;;12.87;72.09;101655.25;5055940;28;20126;-62
2023/01/05 10:48:16;;;;;;;28.27;5.28;;;;;;;12.87;72.04;101663.03;5039416;28;20037;-62
2023/01/05 10:50:43;;;;;;;37.22;6.78;;;;;;;12.88;71.99;101664.78;5036468;28;20036;-61
2023/01/05 10:53:14;;;;;;;24.25;5.10;;;;;;;12.89;72.26;101674.25;5033503;28;20735;-62
2023/01/05 10:56:02;;;;;;;25.80;6.38;;;;;;;12.84;72.03;101663.91;5033416;28;20067;-62
2023/01/05 10:58:39;;;;;;;30.83;6.03;;;;;;;12.85;71.45;101672.56;5027665;28;20576;-62
2023/01/05 11:01:16;;;;;;;24.80;4.90;;;;;;;12.88;71.41;101669.97;5034268;28;20041;-64
2023/01/05 11:03:45;;;;;;;33.10;5.85;;;;;;;12.90;71.57;101676.00;5036026;28;20049;-65
2023/01/05 11:06:21;;;;;;;26.92;5.35;;;;;;;12.89;70.44;101656.97;5037535;28;20041;-65
2023/01/05 11:08:46;;;;;;;21.88;4.35;;;;;;;12.85;70.15;101660.44;5034415;28;20037;-63
2023/01/05 11:11:21;;;;;;;28.90;4.88;;;;;;;12.84;70.08;101661.31;5030763;28;20776;-63
2023/01/05 11:13:48;;;;;;;37.00;5.50;;;;;;;12.84;70.72;101670.84;5028376;28;20139;-62
2023/01/05 11:16:31;;;;;;;24.88;4.85;;;;;;;12.83;70.26;101662.19;5035841;28;20406;-61
2023/01/05 11:18:58;;;;;;;22.65;5.07;;;;;;;12.90;70.71;101671.69;5036499;28;20033;-65
2023/01/05 11:21:44;;;;;;;28.08;6.72;;;;;;;12.97;70.68;101670.78;5032367;28;20055;-61
2023/01/05 11:24:30;;;;;;;;;;;;;;;13.08;70.61;101668.19;5031990;28;20069;-61
2023/01/05 11:27:00;;;;;;;26.45;4.82;;;;;;;13.16;70.60;101670.72;5037811;28;19925;-62
2023/01/05 11:29:26;;;;;;;32.10;5.53;;;;;;;13.13;69.92;101657.75;5034824;28;21674;-62
2023/01/05 11:31:55;;;;;;;21.65;5.05;;;;;;;13.18;69.69;101664.66;5036266;28;20202;-62
2023/01/05 11:34:20;;;;;;;29.15;4.93;;;;;;;13.20;68.89;101652.56;5037184;28;20025;-61
2023/01/05 11:36:54;;;;;;;23.77;4.82;;;;;;;13.37;69.10;101662.84;5038135;28;20033;-62
2023/01/05 11:39:27;;;;;;;24.63;5.63;;;;;;;13.37;68.49;101649.84;5035887;28;20118;-63
2023/01/05 11:42:07;;;;;;;25.60;4.82;;;;;;;13.55;68.86;101662.75;5049340;28;20028;-62
2023/01/05 11:44:33;;;;;;;17.60;4.22;;;;;;;13.63;67.87;101652.28;5041012;28;20072;-62
2023/01/05 11:46:59;;;;;;;22.73;4.88;;;;;;;13.65;67.79;101656.63;5041610;28;20396;-61
2023/01/05 11:49:24;;;;;;;25.10;6.30;;;;;;;13.76;67.81;101652.19;5055777;28;20029;-61
2023/01/05 11:51:50;;;;;;;25.25;5.32;;;;;;;13.88;66.75;101635.66;5034002;28;20029;-62
2023/01/05 11:54:36;;;;;;;22.45;4.57;;;;;;;13.76;64.93;101623.63;5036158;28;20032;-62
2023/01/05 11:57:17;;;;;;;23.90;5.03;;;;;;;13.78;66.01;101629.66;5034368;28;20746;-61
2023/01/05 11:59:45;;;;;;;21.55;4.25;;;;;;;13.70;66.11;101648.78;5047364;28;20047;-60